createdAt,value
2018-05-31T00:00:04.135Z,7.50
2018-05-31T00:01:04.092Z,8.50
2018-05-31T00:02:04.110Z,7.50
2018-05-31T00:03:04.074Z,7.70
2018-05-31T00:04:04.060Z,10.20
2018-05-31T00:05:04.056Z,7.80
2018-05-31T00:06:04.049Z,8.70
2018-05-31T00:07:04.048Z,8.00
2018-05-31T00:08:04.009Z,7.80
2018-05-31T00:09:03.989Z,7.30
2018-05-31T00:10:03.976Z,8.00
2018-05-31T00:11:04.015Z,7.70
2018-05-31T00:12:04.023Z,8.40
2018-05-31T00:13:03.965Z,8.00
2018-05-31T00:14:03.938Z,10.20
2018-05-31T00:15:03.929Z,8.90
2018-05-31T00:16:03.906Z,8.40
2018-05-31T00:17:03.928Z,8.40
2018-05-31T00:18:03.899Z,7.60
2018-05-31T00:19:03.884Z,8.80
2018-05-31T00:20:03.865Z,8.90
2018-05-31T00:21:03.875Z,8.20
2018-05-31T00:22:03.838Z,9.60
2018-05-31T00:23:03.821Z,8.50
2018-05-31T00:24:03.787Z,7.90
2018-05-31T00:25:03.841Z,8.70
2018-05-31T00:26:03.789Z,7.90
2018-05-31T00:27:03.795Z,8.30
2018-05-31T00:28:03.733Z,8.70
2018-05-31T00:29:03.731Z,8.80
2018-05-31T00:30:03.754Z,8.70
2018-05-31T00:31:03.725Z,8.40
2018-05-31T00:32:03.702Z,8.50
2018-05-31T00:33:03.665Z,9.00
2018-05-31T00:34:03.687Z,9.00
2018-05-31T00:35:03.663Z,8.60
2018-05-31T00:36:03.648Z,8.80
2018-05-31T00:37:03.655Z,9.00
2018-05-31T00:38:03.631Z,8.90
2018-05-31T00:39:03.599Z,8.60
2018-05-31T00:40:03.608Z,9.00
2018-05-31T00:41:03.564Z,9.20
2018-05-31T00:42:03.571Z,8.30
2018-05-31T00:43:03.600Z,8.50
2018-05-31T00:44:03.561Z,9.80
2018-05-31T00:45:03.530Z,10.30
2018-05-31T00:46:03.495Z,8.30
2018-05-31T00:47:03.568Z,9.00
2018-05-31T00:48:03.516Z,8.30
2018-05-31T00:49:03.473Z,11.60
2018-05-31T00:50:03.450Z,8.20
2018-05-31T00:51:03.442Z,8.80
2018-05-31T00:52:03.428Z,9.10
2018-05-31T00:53:03.398Z,8.10
2018-05-31T00:54:03.411Z,8.80
2018-05-31T00:55:03.370Z,10.00
2018-05-31T00:56:03.364Z,10.70
2018-05-31T00:57:03.352Z,8.80
2018-05-31T00:58:03.328Z,7.40
2018-05-31T00:59:03.345Z,9.10
2018-05-31T01:00:03.312Z,8.60
2018-05-31T01:01:03.349Z,8.00
2018-05-31T01:02:03.333Z,9.20
2018-05-31T01:03:03.259Z,8.20
2018-05-31T01:04:03.274Z,8.50
2018-05-31T01:05:03.228Z,8.30
2018-05-31T01:06:03.243Z,9.50
2018-05-31T01:07:03.222Z,11.00
2018-05-31T01:08:03.192Z,9.70
2018-05-31T01:09:03.252Z,9.50
2018-05-31T01:10:03.300Z,8.90
2018-05-31T01:11:03.169Z,8.50
2018-05-31T01:12:03.148Z,8.20
2018-05-31T01:13:03.154Z,8.20
2018-05-31T01:14:03.124Z,9.30
2018-05-31T01:15:03.150Z,10.00
2018-05-31T01:16:03.100Z,10.20
2018-05-31T01:17:03.181Z,9.60
2018-05-31T01:18:03.061Z,9.40
2018-05-31T01:19:03.041Z,9.60
2018-05-31T01:20:03.025Z,10.80
2018-05-31T01:21:03.121Z,8.90
2018-05-31T01:22:03.130Z,8.90
2018-05-31T01:23:03.029Z,8.50
2018-05-31T01:24:03.048Z,9.80
2018-05-31T01:25:02.979Z,10.20
2018-05-31T01:26:02.955Z,9.80
2018-05-31T01:27:02.931Z,9.00
2018-05-31T01:28:02.971Z,9.80
2018-05-31T01:29:02.927Z,9.10
2018-05-31T01:30:02.893Z,9.60
2018-05-31T01:31:02.885Z,9.50
2018-05-31T01:32:02.931Z,11.30
2018-05-31T01:33:02.878Z,11.30
2018-05-31T01:34:02.845Z,9.50
2018-05-31T01:35:02.860Z,9.80
2018-05-31T01:36:02.812Z,9.60
2018-05-31T01:37:02.829Z,9.60
2018-05-31T01:38:02.913Z,10.50
2018-05-31T01:39:02.760Z,10.20
2018-05-31T01:40:02.804Z,9.80
2018-05-31T01:41:02.746Z,10.10
2018-05-31T01:42:02.764Z,9.80
2018-05-31T01:43:02.720Z,10.30
2018-05-31T01:44:02.696Z,11.50
2018-05-31T01:45:02.679Z,10.70
2018-05-31T01:46:02.671Z,10.60
2018-05-31T01:47:02.702Z,10.20
2018-05-31T01:48:02.661Z,10.40
2018-05-31T01:49:02.641Z,11.10
2018-05-31T01:50:02.635Z,10.40
2018-05-31T01:51:02.592Z,10.80
2018-05-31T01:52:02.598Z,10.30
2018-05-31T01:53:02.614Z,10.50
2018-05-31T01:54:02.581Z,11.10
2018-05-31T01:55:02.539Z,11.30
2018-05-31T01:56:02.533Z,10.40
2018-05-31T01:57:02.514Z,10.80
2018-05-31T01:58:02.519Z,10.20
2018-05-31T01:59:02.482Z,9.50
2018-05-31T02:00:02.492Z,10.50
2018-05-31T02:01:02.479Z,11.50
2018-05-31T02:02:02.447Z,9.80
2018-05-31T02:03:02.473Z,9.80
2018-05-31T02:04:02.428Z,9.70
2018-05-31T02:05:02.400Z,11.60
2018-05-31T02:06:02.393Z,10.00
2018-05-31T02:07:02.377Z,11.20
2018-05-31T02:08:02.373Z,9.60
2018-05-31T02:09:02.366Z,9.50
2018-05-31T02:10:02.344Z,11.10
2018-05-31T02:11:02.316Z,10.70
2018-05-31T02:12:02.319Z,11.60
2018-05-31T02:13:02.295Z,11.60
2018-05-31T02:14:02.272Z,9.60
2018-05-31T02:15:02.262Z,9.70
2018-05-31T02:16:02.264Z,9.80
2018-05-31T02:17:02.254Z,11.00
2018-05-31T02:18:02.237Z,10.00
2018-05-31T02:19:02.225Z,10.70
2018-05-31T02:20:02.186Z,12.20
2018-05-31T02:21:02.193Z,11.20
2018-05-31T02:22:02.166Z,10.60
2018-05-31T02:23:02.155Z,11.60
2018-05-31T02:24:02.152Z,11.30
2018-05-31T02:25:02.128Z,10.10
2018-05-31T02:26:02.104Z,11.30
2018-05-31T02:27:02.099Z,12.90
2018-05-31T02:28:02.066Z,11.10
2018-05-31T02:29:02.094Z,10.80
2018-05-31T02:30:02.043Z,10.80
2018-05-31T02:31:02.043Z,11.80
2018-05-31T02:32:02.046Z,10.70
2018-05-31T02:33:02.009Z,11.00
2018-05-31T02:34:02.060Z,10.40
2018-05-31T02:35:01.991Z,10.70
2018-05-31T02:36:01.975Z,10.90
2018-05-31T02:37:01.943Z,11.90
2018-05-31T02:38:01.948Z,10.70
2018-05-31T02:39:01.908Z,11.10
2018-05-31T02:40:01.894Z,11.00
2018-05-31T02:41:01.885Z,10.40
2018-05-31T02:42:01.864Z,11.60
2018-05-31T02:43:01.877Z,10.50
2018-05-31T02:44:01.841Z,11.10
2018-05-31T02:45:01.855Z,11.00
2018-05-31T02:46:01.808Z,11.60
2018-05-31T02:47:01.792Z,11.60
2018-05-31T02:48:01.783Z,10.30
2018-05-31T02:49:01.772Z,11.40
2018-05-31T02:50:01.774Z,10.80
2018-05-31T02:51:01.740Z,9.80
2018-05-31T02:52:01.750Z,10.50
2018-05-31T02:53:01.715Z,10.60
2018-05-31T02:54:01.742Z,12.00
2018-05-31T02:55:01.684Z,11.10
2018-05-31T02:56:01.663Z,10.40
2018-05-31T02:57:01.646Z,10.90
2018-05-31T02:58:01.706Z,11.20
2018-05-31T02:59:01.635Z,11.70
2018-05-31T03:00:01.625Z,10.40
2018-05-31T03:01:01.592Z,11.50
2018-05-31T03:02:01.598Z,9.90
2018-05-31T03:03:01.581Z,10.50
2018-05-31T03:04:01.576Z,11.00
2018-05-31T03:05:01.548Z,10.10
2018-05-31T03:06:01.547Z,10.00
2018-05-31T03:07:01.505Z,10.90
2018-05-31T03:08:01.483Z,10.40
2018-05-31T03:09:01.497Z,10.70
2018-05-31T03:10:01.457Z,10.60
2018-05-31T03:11:01.447Z,10.60
2018-05-31T03:12:01.422Z,10.90
2018-05-31T03:13:01.445Z,10.00
2018-05-31T03:14:01.446Z,10.30
2018-05-31T03:15:01.441Z,11.20
2018-05-31T03:16:01.450Z,13.80
2018-05-31T03:17:01.413Z,12.50
2018-05-31T03:18:01.422Z,11.20
2018-05-31T03:19:01.336Z,11.10
2018-05-31T03:20:01.322Z,11.50
2018-05-31T03:21:01.289Z,11.60
2018-05-31T03:22:01.282Z,12.70
2018-05-31T03:23:01.270Z,10.60
2018-05-31T03:24:01.271Z,12.40
2018-05-31T03:25:01.286Z,11.40
2018-05-31T03:26:01.248Z,11.30
2018-05-31T03:27:01.327Z,12.30
2018-05-31T03:28:01.196Z,12.40
2018-05-31T03:29:01.244Z,12.40
2018-05-31T03:30:01.185Z,11.80
2018-05-31T03:31:01.185Z,12.00
2018-05-31T03:32:01.139Z,11.70
2018-05-31T03:33:01.137Z,12.90
2018-05-31T03:34:01.099Z,11.90
2018-05-31T03:35:01.093Z,11.80
2018-05-31T03:36:01.117Z,11.70
2018-05-31T03:37:01.072Z,10.90
2018-05-31T03:38:01.059Z,11.20
2018-05-31T03:39:01.052Z,11.70
2018-05-31T03:40:01.097Z,12.30
2018-05-31T03:41:01.009Z,11.80
2018-05-31T03:42:00.986Z,13.80
2018-05-31T03:43:00.996Z,13.40
2018-05-31T03:44:00.998Z,11.60
2018-05-31T03:45:00.980Z,12.50
2018-05-31T03:46:00.928Z,12.10
2018-05-31T03:47:00.925Z,12.00
2018-05-31T03:48:00.906Z,14.00
2018-05-31T03:49:00.924Z,16.80
2018-05-31T03:50:00.943Z,10.80
2018-05-31T03:51:00.865Z,12.60
2018-05-31T03:52:00.838Z,13.40
2018-05-31T03:53:00.881Z,11.20
2018-05-31T03:54:00.819Z,12.10
2018-05-31T03:55:00.817Z,13.60
2018-05-31T03:56:00.835Z,12.30
2018-05-31T03:57:01.418Z,12.50
2018-05-31T03:58:00.785Z,12.30
2018-05-31T03:59:00.742Z,10.70
2018-05-31T04:00:00.757Z,12.40
2018-05-31T04:01:00.724Z,9.80
2018-05-31T04:02:00.715Z,11.50
2018-05-31T04:03:00.721Z,10.10
2018-05-31T04:04:00.678Z,10.20
2018-05-31T04:05:00.641Z,10.30
2018-05-31T04:06:00.642Z,10.50
2018-05-31T04:07:00.610Z,10.20
2018-05-31T04:08:00.634Z,12.20
2018-05-31T04:09:00.668Z,9.90
2018-05-31T04:10:00.564Z,9.60
2018-05-31T04:11:00.572Z,9.60
2018-05-31T04:12:00.685Z,10.00
2018-05-31T04:13:00.610Z,12.00
2018-05-31T04:14:00.506Z,9.40
2018-05-31T04:15:00.545Z,9.70
2018-05-31T04:16:00.560Z,9.90
2018-05-31T04:17:00.489Z,9.10
2018-05-31T04:18:00.475Z,8.80
2018-05-31T04:19:00.452Z,11.70
2018-05-31T04:20:00.448Z,13.40
2018-05-31T04:21:00.421Z,9.60
2018-05-31T04:22:00.418Z,9.00
2018-05-31T04:23:00.384Z,9.90
2018-05-31T04:24:00.364Z,10.40
2018-05-31T04:25:00.357Z,11.40
2018-05-31T04:26:00.399Z,9.50
2018-05-31T04:27:00.371Z,9.30
2018-05-31T04:28:00.306Z,10.40
2018-05-31T04:29:00.318Z,9.50
2018-05-31T04:30:00.275Z,11.10
2018-05-31T04:31:00.267Z,9.00
2018-05-31T04:32:00.253Z,12.40
2018-05-31T04:33:00.295Z,11.40
2018-05-31T04:34:00.232Z,13.00
2018-05-31T04:35:00.220Z,12.90
2018-05-31T04:36:00.221Z,11.20
2018-05-31T04:37:00.262Z,13.20
2018-05-31T04:38:00.185Z,9.60
2018-05-31T04:39:00.190Z,9.70
2018-05-31T04:40:00.190Z,9.80
2018-05-31T04:41:00.139Z,9.90
2018-05-31T04:42:00.156Z,9.90
2018-05-31T04:43:00.137Z,10.10
2018-05-31T04:44:00.106Z,10.60
2018-05-31T04:45:00.094Z,10.10
2018-05-31T04:46:00.052Z,10.40
2018-05-31T04:47:00.049Z,11.60
2018-05-31T04:48:00.023Z,10.90
2018-05-31T04:49:00.009Z,10.70
2018-05-31T04:49:59.999Z,11.60
2018-05-31T04:50:59.974Z,10.70
2018-05-31T04:52:00.007Z,14.30
2018-05-31T04:52:59.948Z,11.00
2018-05-31T04:53:59.959Z,11.60
2018-05-31T04:54:59.935Z,13.80
2018-05-31T04:55:59.906Z,11.90
2018-05-31T04:56:59.900Z,12.60
2018-05-31T04:57:59.886Z,12.70
2018-05-31T04:58:59.905Z,13.80
2018-05-31T04:59:59.856Z,12.40
2018-05-31T05:00:59.873Z,11.40
2018-05-31T05:01:59.893Z,14.60
2018-05-31T05:02:59.838Z,11.40
2018-05-31T05:03:59.849Z,12.90
2018-05-31T05:04:59.854Z,13.40
2018-05-31T05:05:59.790Z,12.80
2018-05-31T05:06:59.745Z,13.40
2018-05-31T05:07:59.738Z,11.20
2018-05-31T05:08:59.782Z,15.00
2018-05-31T05:09:59.712Z,12.00
2018-05-31T05:10:59.695Z,14.80
2018-05-31T05:11:59.716Z,12.40
2018-05-31T05:12:59.693Z,12.70
2018-05-31T05:13:59.663Z,11.60
2018-05-31T05:14:59.634Z,12.70
2018-05-31T05:15:59.620Z,10.90
2018-05-31T05:16:59.620Z,10.80
2018-05-31T05:17:59.622Z,11.50
2018-05-31T05:18:59.594Z,10.80
2018-05-31T05:19:59.595Z,13.20
2018-05-31T05:20:59.553Z,12.30
2018-05-31T05:21:59.546Z,12.30
2018-05-31T05:22:59.518Z,10.50
2018-05-31T05:23:59.511Z,11.00
2018-05-31T05:24:59.531Z,11.20
2018-05-31T05:25:59.513Z,12.90
2018-05-31T05:26:59.464Z,12.30
2018-05-31T05:27:59.456Z,12.40
2018-05-31T05:28:59.460Z,11.20
2018-05-31T05:29:59.432Z,12.60
2018-05-31T05:30:59.412Z,13.20
2018-05-31T05:31:59.403Z,12.50
2018-05-31T05:32:59.380Z,10.10
2018-05-31T05:33:59.391Z,11.40
2018-05-31T05:34:59.388Z,12.30
2018-05-31T05:35:59.349Z,9.50
2018-05-31T05:36:59.335Z,10.90
2018-05-31T05:37:59.316Z,12.20
2018-05-31T05:38:59.314Z,12.40
2018-05-31T05:39:59.286Z,10.70
2018-05-31T05:40:59.284Z,9.70
2018-05-31T05:41:59.264Z,10.60
2018-05-31T05:42:59.256Z,12.20
2018-05-31T05:43:59.244Z,8.90
2018-05-31T05:44:59.226Z,10.10
2018-05-31T05:45:59.214Z,8.70
2018-05-31T05:46:59.201Z,9.20
2018-05-31T05:47:59.189Z,11.80
2018-05-31T05:48:59.200Z,9.50
2018-05-31T05:49:59.162Z,9.30
2018-05-31T05:50:59.151Z,9.40
2018-05-31T05:51:59.140Z,10.20
2018-05-31T05:52:59.123Z,10.60
2018-05-31T05:53:59.112Z,11.50
2018-05-31T05:54:59.103Z,10.90
2018-05-31T05:55:59.093Z,9.30
2018-05-31T05:56:59.080Z,8.90
2018-05-31T05:57:59.067Z,10.70
2018-05-31T05:58:59.056Z,9.20
2018-05-31T05:59:59.044Z,9.10
2018-05-31T06:00:59.034Z,8.90
2018-05-31T06:01:59.023Z,9.50
2018-05-31T06:02:59.020Z,8.30
2018-05-31T06:03:59.003Z,9.80
2018-05-31T06:04:58.988Z,9.50
2018-05-31T06:05:58.997Z,8.50
2018-05-31T06:06:58.969Z,9.30
2018-05-31T06:07:58.961Z,9.50
2018-05-31T06:08:58.952Z,8.90
2018-05-31T06:09:59.008Z,12.50
2018-05-31T06:10:58.931Z,11.40
2018-05-31T06:11:58.920Z,9.00
2018-05-31T06:12:58.904Z,9.10
2018-05-31T06:13:58.900Z,9.70
2018-05-31T06:14:58.895Z,7.70
2018-05-31T06:15:58.880Z,9.90
2018-05-31T06:16:58.873Z,7.50
2018-05-31T06:17:58.863Z,8.10
2018-05-31T06:18:58.852Z,10.20
2018-05-31T06:19:58.843Z,7.80
2018-05-31T06:20:58.835Z,9.70
2018-05-31T06:21:58.829Z,8.10
2018-05-31T06:22:58.815Z,8.10
2018-05-31T06:23:58.804Z,9.40
2018-05-31T06:24:58.797Z,8.80
2018-05-31T06:25:58.789Z,10.40
2018-05-31T06:26:58.778Z,9.10
2018-05-31T06:27:58.797Z,8.40
2018-05-31T06:28:58.756Z,9.60
2018-05-31T06:29:58.747Z,8.40
2018-05-31T06:30:58.741Z,9.60
2018-05-31T06:31:58.729Z,9.50
2018-05-31T06:32:58.721Z,10.90
2018-05-31T06:33:58.713Z,8.60
2018-05-31T06:34:58.702Z,8.20
2018-05-31T06:35:58.695Z,8.70
2018-05-31T06:36:58.690Z,8.90
2018-05-31T06:37:58.676Z,9.20
2018-05-31T06:38:58.666Z,7.30
2018-05-31T06:39:58.655Z,7.40
2018-05-31T06:40:58.657Z,9.80
2018-05-31T06:41:58.643Z,7.30
2018-05-31T06:42:58.687Z,8.00
2018-05-31T06:43:58.631Z,8.70
2018-05-31T06:44:58.615Z,10.70
2018-05-31T06:45:58.595Z,8.70
2018-05-31T06:46:58.604Z,8.60
2018-05-31T06:47:58.589Z,10.50
2018-05-31T06:48:58.580Z,8.80
2018-05-31T06:49:58.578Z,6.80
2018-05-31T06:50:58.562Z,7.00
2018-05-31T06:51:58.548Z,7.60
2018-05-31T06:52:58.546Z,7.50
2018-05-31T06:53:58.541Z,8.60
2018-05-31T06:54:58.526Z,8.20
2018-05-31T06:55:58.518Z,7.40
2018-05-31T06:56:58.504Z,7.90
2018-05-31T06:57:58.497Z,6.40
2018-05-31T06:58:58.489Z,7.90
2018-05-31T06:59:58.488Z,8.40
2018-05-31T07:00:58.486Z,9.80
2018-05-31T07:01:58.483Z,6.70
2018-05-31T07:02:58.465Z,8.40
2018-05-31T07:03:58.459Z,7.80
2018-05-31T07:04:58.450Z,8.90
2018-05-31T07:05:58.444Z,6.40
2018-05-31T07:06:58.463Z,7.30
2018-05-31T07:07:58.431Z,7.90
2018-05-31T07:08:58.427Z,8.60
2018-05-31T07:09:58.417Z,7.30
2018-05-31T07:10:58.411Z,6.50
2018-05-31T07:11:58.407Z,7.50
2018-05-31T07:12:58.397Z,8.60
2018-05-31T07:13:58.386Z,7.40
2018-05-31T07:14:58.388Z,6.90
2018-05-31T07:15:58.386Z,8.10
2018-05-31T07:16:58.374Z,6.80
2018-05-31T07:17:58.370Z,7.50
2018-05-31T07:18:58.366Z,6.80
2018-05-31T07:19:58.356Z,6.90
2018-05-31T07:20:58.357Z,10.90
2018-05-31T07:21:58.345Z,8.10
2018-05-31T07:22:58.340Z,8.60
2018-05-31T07:23:58.336Z,11.30
2018-05-31T07:24:58.325Z,7.00
2018-05-31T07:25:58.351Z,7.40
2018-05-31T07:26:58.316Z,6.60
2018-05-31T07:27:58.307Z,6.80
2018-05-31T07:28:58.300Z,9.80
2018-05-31T07:29:58.290Z,8.00
2018-05-31T07:30:58.276Z,8.40
2018-05-31T07:31:58.281Z,8.60
2018-05-31T07:32:58.265Z,10.60
2018-05-31T07:33:58.265Z,10.60
2018-05-31T07:34:58.256Z,7.10
2018-05-31T07:35:58.253Z,7.00
2018-05-31T07:36:58.254Z,9.40
2018-05-31T07:37:58.237Z,8.80
2018-05-31T07:38:58.231Z,7.40
2018-05-31T07:39:58.225Z,6.50
2018-05-31T07:40:58.218Z,9.80
2018-05-31T07:41:58.213Z,6.90
2018-05-31T07:42:58.202Z,7.60
2018-05-31T07:43:58.195Z,7.70
2018-05-31T07:44:58.190Z,7.80
2018-05-31T07:45:58.184Z,8.70
2018-05-31T07:46:58.178Z,9.10
2018-05-31T07:47:58.164Z,9.50
2018-05-31T07:48:58.157Z,6.30
2018-05-31T07:49:58.155Z,6.90
2018-05-31T07:50:58.250Z,7.10
2018-05-31T07:51:58.132Z,7.30
2018-05-31T07:52:58.131Z,7.30
2018-05-31T07:53:58.196Z,5.80
2018-05-31T07:54:58.116Z,7.10
2018-05-31T07:55:58.141Z,6.30
2018-05-31T07:56:58.088Z,7.10
2018-05-31T07:57:58.113Z,6.70
2018-05-31T07:58:58.078Z,7.00
2018-05-31T07:59:58.073Z,6.70
2018-05-31T08:00:58.061Z,6.70
2018-05-31T08:01:58.098Z,8.50
2018-05-31T08:02:58.049Z,6.70
2018-05-31T08:03:58.036Z,9.50
2018-05-31T08:04:58.034Z,9.50
2018-05-31T08:05:58.041Z,6.20
2018-05-31T08:06:58.053Z,6.40
2018-05-31T08:07:58.023Z,5.70
2018-05-31T08:08:58.027Z,7.20
2018-05-31T08:09:57.992Z,8.20
2018-05-31T08:10:57.992Z,7.50
2018-05-31T08:11:57.979Z,8.50
2018-05-31T08:12:57.965Z,6.40
2018-05-31T08:13:57.961Z,6.30
2018-05-31T08:14:57.965Z,6.90
2018-05-31T08:15:57.956Z,6.80
2018-05-31T08:16:57.940Z,7.40
2018-05-31T08:17:57.938Z,7.00
2018-05-31T08:18:57.928Z,7.20
2018-05-31T08:19:57.913Z,6.40
2018-05-31T08:20:57.920Z,5.90
2018-05-31T08:21:57.901Z,6.40
2018-05-31T08:22:57.892Z,5.20
2018-05-31T08:23:57.903Z,5.00
2018-05-31T08:24:57.886Z,6.60
2018-05-31T08:25:57.873Z,6.10
2018-05-31T08:26:57.869Z,7.00
2018-05-31T08:27:57.870Z,8.00
2018-05-31T08:28:57.856Z,4.90
2018-05-31T08:29:57.851Z,9.80
2018-05-31T08:30:57.839Z,7.60
2018-05-31T08:31:57.825Z,5.20
2018-05-31T08:32:57.817Z,6.20
2018-05-31T08:33:57.816Z,6.70
2018-05-31T08:34:57.804Z,7.10
2018-05-31T08:35:57.798Z,5.20
2018-05-31T08:36:57.795Z,5.60
2018-05-31T08:37:57.788Z,6.20
2018-05-31T08:38:57.774Z,6.40
2018-05-31T08:39:57.797Z,5.20
2018-05-31T08:40:57.764Z,7.10
2018-05-31T08:41:57.754Z,9.50
2018-05-31T08:42:57.748Z,6.20
2018-05-31T08:43:57.786Z,7.80
2018-05-31T08:44:57.732Z,5.20
2018-05-31T08:45:57.727Z,6.90
2018-05-31T08:46:57.720Z,9.70
2018-05-31T08:47:57.702Z,4.60
2018-05-31T08:48:57.700Z,5.50
2018-05-31T08:49:57.698Z,6.50
2018-05-31T08:50:57.719Z,5.20
2018-05-31T08:51:57.684Z,5.80
2018-05-31T08:52:57.670Z,6.90
2018-05-31T08:53:57.657Z,4.70
2018-05-31T08:54:57.775Z,6.40
2018-05-31T08:55:57.650Z,5.10
2018-05-31T08:56:57.666Z,8.00
2018-05-31T08:57:57.668Z,5.60
2018-05-31T08:58:57.630Z,6.00
2018-05-31T08:59:57.622Z,5.20
2018-05-31T09:00:57.614Z,5.60
2018-05-31T09:01:57.609Z,6.50
2018-05-31T09:02:57.597Z,6.60
2018-05-31T09:03:57.646Z,6.00
2018-05-31T09:04:57.682Z,5.80
2018-05-31T09:05:57.578Z,6.20
2018-05-31T09:06:57.571Z,5.40
2018-05-31T09:07:57.552Z,5.20
2018-05-31T09:08:57.563Z,6.20
2018-05-31T09:09:57.546Z,7.50
2018-05-31T09:10:57.538Z,4.60
2018-05-31T09:11:58.014Z,5.60
2018-05-31T09:12:57.538Z,5.50
2018-05-31T09:13:57.517Z,6.00
2018-05-31T09:14:57.517Z,4.60
2018-05-31T09:15:57.497Z,5.20
2018-05-31T09:16:57.491Z,5.70
2018-05-31T09:17:57.494Z,5.70
2018-05-31T09:18:57.494Z,4.70
2018-05-31T09:19:57.481Z,5.70
2018-05-31T09:20:57.477Z,4.60
2018-05-31T09:21:57.474Z,4.80
2018-05-31T09:22:57.451Z,5.70
2018-05-31T09:23:57.446Z,5.60
2018-05-31T09:24:57.432Z,5.40
2018-05-31T09:25:57.496Z,5.60
2018-05-31T09:26:57.471Z,6.70
2018-05-31T09:27:57.416Z,4.60
2018-05-31T09:28:57.418Z,4.50
2018-05-31T09:29:57.412Z,6.20
2018-05-31T09:30:57.417Z,5.40
2018-05-31T09:31:57.389Z,6.00
2018-05-31T09:32:57.627Z,3.80
2018-05-31T09:33:57.529Z,5.10
2018-05-31T09:34:57.446Z,6.00
2018-05-31T09:35:58.156Z,6.00
2018-05-31T09:36:57.362Z,4.20
2018-05-31T09:37:57.360Z,5.00
2018-05-31T09:38:57.347Z,4.30
2018-05-31T09:39:59.897Z,5.10
2018-05-31T09:40:57.341Z,4.20
2018-05-31T09:41:57.346Z,4.70
2018-05-31T09:42:57.325Z,6.00
2018-05-31T09:43:57.317Z,5.80
2018-05-31T09:44:57.319Z,4.60
2018-05-31T09:45:57.349Z,4.50
2018-05-31T09:46:57.303Z,4.50
2018-05-31T09:47:57.311Z,4.80
2018-05-31T09:48:57.300Z,6.50
2018-05-31T09:49:57.317Z,4.70
2018-05-31T09:50:57.267Z,4.40
2018-05-31T09:51:57.416Z,5.40
2018-05-31T09:52:57.339Z,5.40
2018-05-31T09:53:57.272Z,5.60
2018-05-31T09:54:58.115Z,5.40
2018-05-31T09:55:57.237Z,6.70
2018-05-31T09:56:57.243Z,6.00
2018-05-31T09:57:58.589Z,6.40
2018-05-31T09:58:57.496Z,5.10
2018-05-31T09:59:57.208Z,5.10
2018-05-31T10:00:57.217Z,5.00
2018-05-31T10:01:57.208Z,5.00
2018-05-31T10:02:57.198Z,4.60
2018-05-31T10:03:57.304Z,5.60
2018-05-31T10:04:57.178Z,4.40
2018-05-31T10:05:57.180Z,4.50
2018-05-31T10:06:57.165Z,5.20
2018-05-31T10:07:57.158Z,4.70
2018-05-31T10:08:57.171Z,5.10
2018-05-31T10:09:57.209Z,5.70
2018-05-31T10:10:57.130Z,4.00
2018-05-31T10:11:57.135Z,5.20
2018-05-31T10:12:57.123Z,4.90
2018-05-31T10:13:57.145Z,4.30
2018-05-31T10:14:57.106Z,4.10
2018-05-31T10:15:57.103Z,4.30
2018-05-31T10:16:57.093Z,5.80
2018-05-31T10:17:57.092Z,5.00
2018-05-31T10:18:57.141Z,6.30
2018-05-31T10:19:57.076Z,5.10
2018-05-31T10:20:57.067Z,4.50
2018-05-31T10:21:57.060Z,6.50
2018-05-31T10:22:57.055Z,8.80
2018-05-31T10:23:57.052Z,6.30
2018-05-31T10:24:57.041Z,5.70
2018-05-31T10:25:57.031Z,6.50
2018-05-31T10:26:57.026Z,5.80
2018-05-31T10:27:57.027Z,8.00
2018-05-31T10:28:57.013Z,5.90
2018-05-31T10:29:57.021Z,4.90
2018-05-31T10:30:57.010Z,8.90
2018-05-31T10:31:57.019Z,9.70
2018-05-31T10:32:57.043Z,13.00
2018-05-31T10:33:56.988Z,10.20
2018-05-31T10:34:56.985Z,9.00
2018-05-31T10:35:56.999Z,8.00
2018-05-31T10:36:57.001Z,9.30
2018-05-31T10:37:57.008Z,7.60
2018-05-31T10:38:56.976Z,7.50
2018-05-31T10:39:57.024Z,6.60
2018-05-31T10:40:56.980Z,7.30
2018-05-31T10:41:56.937Z,7.90
2018-05-31T10:42:56.966Z,8.90
2018-05-31T10:43:57.029Z,8.90
2018-05-31T10:44:56.963Z,7.00
2018-05-31T10:45:56.917Z,7.40
2018-05-31T10:46:56.933Z,8.00
2018-05-31T10:47:56.906Z,9.10
2018-05-31T10:48:56.913Z,6.80
2018-05-31T10:49:56.898Z,7.40
2018-05-31T10:50:56.905Z,7.40
2018-05-31T10:51:57.306Z,7.80
2018-05-31T10:52:56.881Z,7.40
2018-05-31T10:53:56.901Z,6.60
2018-05-31T10:54:56.872Z,6.90
2018-05-31T10:55:56.878Z,7.20
2018-05-31T10:56:56.866Z,6.00
2018-05-31T10:57:56.853Z,6.10
2018-05-31T10:58:56.848Z,7.00
2018-05-31T10:59:56.868Z,11.30
2018-05-31T11:00:56.874Z,7.20
2018-05-31T11:01:56.860Z,6.80
2018-05-31T11:02:56.823Z,5.80
2018-05-31T11:03:56.833Z,8.60
2018-05-31T11:04:56.817Z,8.40
2018-05-31T11:05:56.847Z,7.70
2018-05-31T11:06:56.824Z,5.60
2018-05-31T11:07:56.800Z,7.70
2018-05-31T11:08:57.216Z,6.40
2018-05-31T11:09:56.809Z,6.80
2018-05-31T11:10:56.903Z,7.30
2018-05-31T11:11:56.782Z,6.70
2018-05-31T11:12:57.130Z,8.50
2018-05-31T11:13:56.846Z,5.80
2018-05-31T11:14:56.922Z,7.60
2018-05-31T11:15:56.775Z,9.10
2018-05-31T11:16:56.754Z,6.30
2018-05-31T11:17:56.744Z,6.10
2018-05-31T11:18:57.089Z,5.50
2018-05-31T11:19:56.738Z,5.60
2018-05-31T11:20:56.712Z,7.60
2018-05-31T11:21:56.772Z,7.50
2018-05-31T11:22:56.727Z,6.20
2018-05-31T11:23:56.935Z,6.40
2018-05-31T11:24:56.682Z,6.40
2018-05-31T11:25:56.819Z,7.70
2018-05-31T11:26:56.950Z,5.90
2018-05-31T11:27:56.711Z,6.10
2018-05-31T11:28:56.973Z,6.20
2018-05-31T11:29:56.767Z,9.50
2018-05-31T11:30:56.687Z,8.80
2018-05-31T11:31:56.633Z,6.60
2018-05-31T11:32:56.789Z,8.40
2018-05-31T11:33:56.625Z,6.10
2018-05-31T11:34:56.721Z,8.00
2018-05-31T11:35:56.614Z,8.90
2018-05-31T11:36:56.607Z,7.50
2018-05-31T11:37:56.793Z,6.80
2018-05-31T11:38:56.616Z,8.30
2018-05-31T11:39:56.611Z,5.20
2018-05-31T11:40:56.832Z,5.90
2018-05-31T11:41:56.566Z,6.20
2018-05-31T11:42:56.602Z,7.30
2018-05-31T11:43:56.834Z,7.40
2018-05-31T11:44:56.781Z,5.80
2018-05-31T11:45:56.721Z,6.10
2018-05-31T11:46:56.551Z,8.60
2018-05-31T11:47:56.657Z,7.50
2018-05-31T11:48:56.569Z,8.80
2018-05-31T11:49:56.572Z,7.60
2018-05-31T11:50:56.502Z,9.70
2018-05-31T11:51:56.498Z,5.80
2018-05-31T11:52:57.052Z,6.20
2018-05-31T11:53:56.684Z,6.60
2018-05-31T11:54:56.493Z,7.30
2018-05-31T11:55:56.511Z,6.80
2018-05-31T11:56:56.512Z,6.80
2018-05-31T11:57:56.462Z,6.10
2018-05-31T11:58:56.483Z,7.90
2018-05-31T11:59:56.532Z,7.80
2018-05-31T12:00:56.597Z,6.70
2018-05-31T12:01:56.448Z,6.30
2018-05-31T12:02:56.421Z,8.00
2018-05-31T12:03:56.464Z,7.10
2018-05-31T12:04:56.443Z,8.50
2018-05-31T12:05:56.415Z,7.60
2018-05-31T12:06:56.431Z,7.60
2018-05-31T12:07:56.392Z,7.70
2018-05-31T12:08:56.382Z,6.40
2018-05-31T12:09:56.377Z,6.30
2018-05-31T12:10:56.451Z,7.00
2018-05-31T12:11:56.384Z,5.10
2018-05-31T12:12:56.366Z,8.60
2018-05-31T12:13:56.353Z,8.60
2018-05-31T12:14:56.341Z,9.90
2018-05-31T12:15:56.712Z,7.80
2018-05-31T12:16:56.368Z,6.00
2018-05-31T12:17:56.340Z,8.00
2018-05-31T12:18:56.326Z,5.30
2018-05-31T12:19:56.332Z,8.80
2018-05-31T12:20:56.301Z,7.20
2018-05-31T12:21:56.309Z,8.70
2018-05-31T12:22:56.287Z,6.50
2018-05-31T12:23:56.280Z,5.70
2018-05-31T12:24:56.273Z,5.40
2018-05-31T12:25:56.252Z,7.70
2018-05-31T12:26:56.266Z,6.40
2018-05-31T12:27:56.361Z,6.30
2018-05-31T12:28:56.239Z,5.40
2018-05-31T12:29:56.270Z,5.60
2018-05-31T12:30:56.272Z,5.20
2018-05-31T12:31:56.633Z,8.70
2018-05-31T12:32:56.229Z,6.00
2018-05-31T12:33:56.227Z,6.00
2018-05-31T12:34:56.751Z,6.00
2018-05-31T12:35:56.374Z,6.90
2018-05-31T12:36:56.183Z,8.00
2018-05-31T12:37:56.183Z,6.60
2018-05-31T12:38:56.347Z,8.30
2018-05-31T12:39:56.170Z,5.80
2018-05-31T12:40:56.157Z,5.40
2018-05-31T12:41:56.164Z,8.10
2018-05-31T12:42:56.152Z,6.80
2018-05-31T12:43:56.144Z,6.40
2018-05-31T12:44:56.510Z,6.60
2018-05-31T12:45:56.128Z,9.20
2018-05-31T12:46:56.125Z,6.50
2018-05-31T12:47:56.162Z,8.30
2018-05-31T12:48:56.123Z,6.30
2018-05-31T12:49:56.115Z,7.70
2018-05-31T12:50:56.112Z,7.20
2018-05-31T12:51:56.099Z,5.80
2018-05-31T12:52:56.226Z,7.60
2018-05-31T12:53:56.082Z,5.90
2018-05-31T12:54:56.183Z,5.50
2018-05-31T12:55:56.450Z,8.40
2018-05-31T12:56:59.264Z,8.20
2018-05-31T12:57:56.074Z,7.40
2018-05-31T12:58:56.065Z,8.50
2018-05-31T12:59:57.391Z,8.20
2018-05-31T13:00:56.101Z,6.00
2018-05-31T13:01:56.720Z,7.90
2018-05-31T13:02:56.046Z,6.10
2018-05-31T13:03:56.055Z,9.00
2018-05-31T13:04:56.036Z,5.70
2018-05-31T13:05:56.073Z,6.20
2018-05-31T13:06:56.194Z,8.20
2018-05-31T13:07:56.027Z,8.20
2018-05-31T13:08:56.101Z,6.70
2018-05-31T13:09:56.059Z,5.20